createdAt,value
2018-12-11T00:00:47.841Z,7.05
2018-12-11T00:01:47.829Z,7.02
2018-12-11T00:02:47.822Z,7.03
2018-12-11T00:03:47.811Z,7.14
2018-12-11T00:04:47.802Z,7.05
2018-12-11T00:05:47.799Z,7.03
2018-12-11T00:06:47.786Z,7.03
2018-12-11T00:07:47.784Z,7.06
2018-12-11T00:08:47.770Z,7.07
2018-12-11T00:09:47.815Z,7.05
2018-12-11T00:10:47.753Z,7.07
2018-12-11T00:11:47.745Z,7.06
2018-12-11T00:12:47.741Z,7.00
2018-12-11T00:13:47.727Z,7.06
2018-12-11T00:14:47.717Z,7.02
2018-12-11T00:15:47.710Z,7.14
2018-12-11T00:16:47.701Z,7.20
2018-12-11T00:17:47.691Z,7.24
2018-12-11T00:18:47.685Z,7.15
2018-12-11T00:19:47.673Z,7.05
2018-12-11T00:20:47.665Z,7.17
2018-12-11T00:21:47.658Z,7.15
2018-12-11T00:22:47.648Z,7.14
2018-12-11T00:23:47.653Z,7.20
2018-12-11T00:24:47.632Z,7.23
2018-12-11T00:25:47.623Z,7.17
2018-12-11T00:26:47.615Z,7.17
2018-12-11T00:27:47.606Z,7.20
2018-12-11T00:28:47.597Z,7.14
2018-12-11T00:29:47.590Z,7.24
2018-12-11T00:30:47.581Z,7.25
2018-12-11T00:31:47.571Z,7.15
2018-12-11T00:32:47.564Z,7.18
2018-12-11T00:33:47.555Z,7.18
2018-12-11T00:34:47.547Z,7.15
2018-12-11T00:35:47.538Z,7.06
2018-12-11T00:36:47.532Z,7.15
2018-12-11T00:37:47.520Z,7.00
2018-12-11T00:38:47.513Z,7.03
2018-12-11T00:39:47.502Z,7.03
2018-12-11T00:40:47.497Z,7.10
2018-12-11T00:41:47.486Z,6.97
2018-12-11T00:42:47.481Z,7.06
2018-12-11T00:43:47.468Z,7.10
2018-12-11T00:44:47.458Z,6.96
2018-12-11T00:45:47.455Z,7.03
2018-12-11T00:46:47.442Z,7.05
2018-12-11T00:47:47.431Z,7.03
2018-12-11T00:48:47.424Z,7.05
2018-12-11T00:49:47.423Z,7.10
2018-12-11T00:50:47.422Z,7.05
2018-12-11T00:51:47.398Z,6.99
2018-12-11T00:52:47.390Z,6.99
2018-12-11T00:53:47.380Z,7.05
2018-12-11T00:54:47.372Z,7.00
2018-12-11T00:55:47.363Z,6.95
2018-12-11T00:56:47.355Z,7.03
2018-12-11T00:57:47.346Z,7.02
2018-12-11T00:58:47.340Z,7.00
2018-12-11T00:59:47.328Z,7.00
2018-12-11T01:00:47.322Z,7.02
2018-12-11T01:01:47.311Z,7.03
2018-12-11T01:02:47.304Z,6.97
2018-12-11T01:03:47.293Z,7.05
2018-12-11T01:04:47.287Z,6.99
2018-12-11T01:05:47.275Z,7.02
2018-12-11T01:06:47.268Z,7.03
2018-12-11T01:07:47.260Z,7.02
2018-12-11T01:08:47.253Z,6.97
2018-12-11T01:09:47.241Z,7.03
2018-12-11T01:10:47.234Z,7.05
2018-12-11T01:11:47.225Z,7.10
2018-12-11T01:12:47.216Z,7.05
2018-12-11T01:13:47.209Z,7.10
2018-12-11T01:14:47.198Z,7.07
2018-12-11T01:15:47.192Z,7.10
2018-12-11T01:16:47.180Z,7.03
2018-12-11T01:17:47.172Z,7.03
2018-12-11T01:18:47.172Z,7.03
2018-12-11T01:19:47.155Z,7.02
2018-12-11T01:20:47.144Z,7.00
2018-12-11T01:21:47.138Z,7.02
2018-12-11T01:22:47.130Z,7.13
2018-12-11T01:23:47.121Z,7.10
2018-12-11T01:24:47.120Z,7.02
2018-12-11T01:25:47.101Z,7.10
2018-12-11T01:26:47.099Z,7.06
2018-12-11T01:27:47.086Z,7.05
2018-12-11T01:28:47.078Z,7.11
2018-12-11T01:29:47.067Z,7.11
2018-12-11T01:30:47.062Z,7.17
2018-12-11T01:31:47.105Z,7.23
2018-12-11T01:32:47.042Z,7.14
2018-12-11T01:33:47.040Z,7.24
2018-12-11T01:34:47.024Z,7.24
2018-12-11T01:35:47.015Z,7.24
2018-12-11T01:36:47.007Z,7.21
2018-12-11T01:37:47.002Z,7.14
2018-12-11T01:38:46.989Z,7.29
2018-12-11T01:39:46.978Z,7.14
2018-12-11T01:40:46.973Z,7.32
2018-12-11T01:41:46.962Z,7.33
2018-12-11T01:42:46.957Z,7.39
2018-12-11T01:43:46.946Z,7.35
2018-12-11T01:44:46.943Z,7.38
2018-12-11T01:45:46.930Z,7.29
2018-12-11T01:46:46.922Z,7.28
2018-12-11T01:47:46.915Z,7.23
2018-12-11T01:48:46.904Z,7.29
2018-12-11T01:49:46.894Z,7.20
2018-12-11T01:50:46.885Z,7.15
2018-12-11T01:51:46.885Z,7.17
2018-12-11T01:52:46.871Z,7.17
2018-12-11T01:53:46.861Z,7.14
2018-12-11T01:54:46.852Z,7.21
2018-12-11T01:55:46.843Z,7.20
2018-12-11T01:56:46.834Z,7.14
2018-12-11T01:57:46.825Z,7.25
2018-12-11T01:58:46.816Z,7.23
2018-12-11T01:59:46.807Z,7.20
2018-12-11T02:00:46.797Z,7.23
2018-12-11T02:01:46.790Z,7.17
2018-12-11T02:02:46.782Z,7.15
2018-12-11T02:03:46.772Z,7.24
2018-12-11T02:04:46.766Z,7.21
2018-12-11T02:05:46.756Z,7.13
2018-12-11T02:06:46.749Z,7.14
2018-12-11T02:07:46.738Z,7.17
2018-12-11T02:08:46.734Z,7.20
2018-12-11T02:09:46.723Z,7.18
2018-12-11T02:10:46.719Z,7.20
2018-12-11T02:11:46.703Z,7.17
2018-12-11T02:12:46.697Z,7.21
2018-12-11T02:13:46.689Z,7.15
2018-12-11T02:14:46.679Z,7.18
2018-12-11T02:15:46.673Z,7.18
2018-12-11T02:16:46.658Z,7.20
2018-12-11T02:17:46.652Z,7.28
2018-12-11T02:18:46.645Z,7.14
2018-12-11T02:19:46.634Z,7.25
2018-12-11T02:20:46.628Z,7.14
2018-12-11T02:21:46.617Z,7.29
2018-12-11T02:22:46.609Z,7.28
2018-12-11T02:23:46.606Z,7.15
2018-12-11T02:24:46.593Z,7.14
2018-12-11T02:25:46.582Z,7.17
2018-12-11T02:26:46.579Z,7.20
2018-12-11T02:27:46.581Z,7.20
2018-12-11T02:28:46.557Z,7.17
2018-12-11T02:29:46.549Z,7.21
2018-12-11T02:30:46.543Z,7.29
2018-12-11T02:31:46.532Z,7.33
2018-12-11T02:32:46.523Z,7.32
2018-12-11T02:33:46.521Z,7.32
2018-12-11T02:34:46.509Z,7.28
2018-12-11T02:35:46.497Z,7.38
2018-12-11T02:36:46.494Z,7.39
2018-12-11T02:37:46.482Z,7.31
2018-12-11T02:38:46.474Z,7.31
2018-12-11T02:39:46.472Z,7.29
2018-12-11T02:40:46.454Z,7.28
2018-12-11T02:41:46.449Z,7.33
2018-12-11T02:42:46.438Z,7.29
2018-12-11T02:43:46.430Z,7.35
2018-12-11T02:44:46.426Z,7.36
2018-12-11T02:45:46.416Z,7.36
2018-12-11T02:46:46.433Z,7.35
2018-12-11T02:47:46.397Z,7.36
2018-12-11T02:48:46.385Z,7.35
2018-12-11T02:49:46.392Z,7.38
2018-12-11T02:50:46.374Z,7.28
2018-12-11T02:51:46.362Z,7.29
2018-12-11T02:52:46.353Z,7.31
2018-12-11T02:53:46.343Z,7.31
2018-12-11T02:54:46.336Z,7.33
2018-12-11T02:55:46.327Z,7.39
2018-12-11T02:56:46.320Z,7.35
2018-12-11T02:57:46.314Z,7.38
2018-12-11T02:58:46.314Z,7.39
2018-12-11T02:59:46.298Z,7.36
2018-12-11T03:00:46.284Z,7.35
2018-12-11T03:01:46.275Z,7.39
2018-12-11T03:02:46.270Z,7.39
2018-12-11T03:03:46.259Z,7.35
2018-12-11T03:04:46.258Z,7.43
2018-12-11T03:05:46.243Z,7.35
2018-12-11T03:06:46.237Z,7.29
2018-12-11T03:07:46.227Z,7.31
2018-12-11T03:08:46.218Z,7.32
2018-12-11T03:09:46.209Z,7.28
2018-12-11T03:10:46.203Z,7.28
2018-12-11T03:11:46.191Z,7.36
2018-12-11T03:12:46.185Z,7.32
2018-12-11T03:13:46.176Z,7.39
2018-12-11T03:14:46.168Z,7.38
2018-12-11T03:15:46.158Z,7.42
2018-12-11T03:16:46.153Z,7.36
2018-12-11T03:17:46.146Z,7.36
2018-12-11T03:18:46.133Z,7.43
2018-12-11T03:19:46.123Z,7.45
2018-12-11T03:20:46.114Z,7.45
2018-12-11T03:21:46.110Z,7.48
2018-12-11T03:22:46.100Z,7.47
2018-12-11T03:23:46.095Z,7.43
2018-12-11T03:24:46.085Z,7.43
2018-12-11T03:25:46.074Z,7.48
2018-12-11T03:26:46.072Z,7.48
2018-12-11T03:27:46.056Z,7.53
2018-12-11T03:28:46.047Z,7.50
2018-12-11T03:29:46.038Z,7.50
2018-12-11T03:30:46.033Z,7.50
2018-12-11T03:31:46.025Z,7.47
2018-12-11T03:32:46.019Z,7.40
2018-12-11T03:33:46.010Z,7.38
2018-12-11T03:34:45.997Z,7.38
2018-12-11T03:35:45.990Z,7.38
2018-12-11T03:36:45.981Z,7.33
2018-12-11T03:37:45.975Z,7.43
2018-12-11T03:38:45.967Z,7.32
2018-12-11T03:39:45.959Z,7.36
2018-12-11T03:40:45.948Z,7.36
2018-12-11T03:41:45.939Z,7.36
2018-12-11T03:42:45.936Z,7.39
2018-12-11T03:43:45.923Z,7.25
2018-12-11T03:44:45.913Z,7.25
2018-12-11T03:45:45.911Z,7.36
2018-12-11T03:46:45.901Z,7.39
2018-12-11T03:47:45.895Z,7.33
2018-12-11T03:48:45.880Z,7.38
2018-12-11T03:49:45.873Z,7.39
2018-12-11T03:50:45.864Z,7.39
2018-12-11T03:51:45.856Z,7.33
2018-12-11T03:52:45.846Z,7.31
2018-12-11T03:53:45.839Z,7.32
2018-12-11T03:54:45.884Z,7.23
2018-12-11T03:55:45.822Z,7.33
2018-12-11T03:56:45.815Z,7.24
2018-12-11T03:57:45.804Z,7.14
2018-12-11T03:58:45.797Z,7.20
2018-12-11T03:59:45.786Z,7.32
2018-12-11T04:00:45.780Z,7.24
2018-12-11T04:01:45.770Z,7.20
2018-12-11T04:02:45.761Z,7.23
2018-12-11T04:03:45.755Z,7.17
2018-12-11T04:04:45.745Z,7.17
2018-12-11T04:05:45.735Z,7.13
2018-12-11T04:06:45.727Z,7.20
2018-12-11T04:07:45.719Z,7.23
2018-12-11T04:08:45.710Z,7.17
2018-12-11T04:09:45.704Z,7.14
2018-12-11T04:10:45.693Z,7.23
2018-12-11T04:11:45.686Z,7.14
2018-12-11T04:12:45.683Z,7.14
2018-12-11T04:13:45.666Z,7.17
2018-12-11T04:14:45.668Z,7.17
2018-12-11T04:15:45.648Z,7.13
2018-12-11T04:16:45.642Z,7.17
2018-12-11T04:17:45.632Z,7.21
2018-12-11T04:18:45.645Z,7.23
2018-12-11T04:19:45.611Z,7.21
2018-12-11T04:20:45.604Z,7.24
2018-12-11T04:21:45.596Z,7.21
2018-12-11T04:22:45.590Z,7.14
2018-12-11T04:23:45.579Z,7.00
2018-12-11T04:24:45.573Z,7.03
2018-12-11T04:25:45.563Z,7.11
2018-12-11T04:26:45.554Z,7.03
2018-12-11T04:27:45.547Z,7.13
2018-12-11T04:28:45.536Z,7.15
2018-12-11T04:29:45.529Z,7.17
2018-12-11T04:30:45.517Z,7.20
2018-12-11T04:31:45.509Z,7.28
2018-12-11T04:32:45.504Z,7.14
2018-12-11T04:33:45.492Z,7.18
2018-12-11T04:34:45.483Z,7.23
2018-12-11T04:35:45.477Z,7.31
2018-12-11T04:36:45.468Z,7.36
2018-12-11T04:37:45.462Z,7.28
2018-12-11T04:38:45.454Z,7.25
2018-12-11T04:39:45.440Z,7.31
2018-12-11T04:40:45.431Z,7.14
2018-12-11T04:41:45.426Z,7.28
2018-12-11T04:42:45.417Z,7.23
2018-12-11T04:43:45.412Z,7.15
2018-12-11T04:44:45.400Z,7.23
2018-12-11T04:45:45.389Z,7.31
2018-12-11T04:46:45.386Z,7.32
2018-12-11T04:47:45.378Z,7.29
2018-12-11T04:48:45.371Z,7.38
2018-12-11T04:49:45.353Z,7.33
2018-12-11T04:50:45.355Z,7.25
2018-12-11T04:51:45.339Z,7.31
2018-12-11T04:52:45.330Z,7.33
2018-12-11T04:53:45.320Z,7.35
2018-12-11T04:54:45.388Z,7.32
2018-12-11T04:55:45.368Z,7.35
2018-12-11T04:56:45.296Z,7.38
2018-12-11T04:57:45.287Z,7.38
2018-12-11T04:58:45.281Z,7.35
2018-12-11T04:59:45.270Z,7.35
2018-12-11T05:00:45.260Z,7.39
2018-12-11T05:01:45.251Z,7.38
2018-12-11T05:02:45.244Z,7.21
2018-12-11T05:03:45.236Z,7.24
2018-12-11T05:04:45.227Z,7.35
2018-12-11T05:05:45.219Z,7.35
2018-12-11T05:06:45.210Z,7.29
2018-12-11T05:07:45.200Z,7.25
2018-12-11T05:08:45.195Z,7.36
2018-12-11T05:09:45.190Z,7.33
2018-12-11T05:10:45.176Z,7.35
2018-12-11T05:11:45.165Z,7.38
2018-12-11T05:12:45.181Z,7.39
2018-12-11T05:13:45.156Z,7.40
2018-12-11T05:14:45.141Z,7.35
2018-12-11T05:15:45.133Z,7.38
2018-12-11T05:16:45.133Z,7.35
2018-12-11T05:17:45.116Z,7.35
2018-12-11T05:18:45.113Z,7.42
2018-12-11T05:19:45.096Z,7.40
2018-12-11T05:20:45.089Z,7.39
2018-12-11T05:21:45.082Z,7.54
2018-12-11T05:22:45.077Z,7.47
2018-12-11T05:23:45.068Z,7.48
2018-12-11T05:24:45.061Z,7.47
2018-12-11T05:25:45.050Z,7.42
2018-12-11T05:26:45.043Z,7.40
2018-12-11T05:27:45.033Z,7.38
2018-12-11T05:28:45.024Z,7.39
2018-12-11T05:29:45.017Z,7.36
2018-12-11T05:30:45.007Z,7.31
2018-12-11T05:31:44.998Z,7.28
2018-12-11T05:32:44.992Z,7.28
2018-12-11T05:33:44.982Z,7.29
2018-12-11T05:34:44.973Z,7.20
2018-12-11T05:35:44.983Z,7.14
2018-12-11T05:36:44.959Z,7.31
2018-12-11T05:37:44.948Z,7.32
2018-12-11T05:38:44.944Z,7.29
2018-12-11T05:39:44.930Z,7.29
2018-12-11T05:40:44.922Z,7.32
2018-12-11T05:41:44.915Z,7.38
2018-12-11T05:42:44.903Z,7.21
2018-12-11T05:43:44.895Z,7.28
2018-12-11T05:44:44.887Z,7.32
2018-12-11T05:45:44.879Z,7.23
2018-12-11T05:46:44.866Z,7.32
2018-12-11T05:47:44.862Z,7.24
2018-12-11T05:48:44.854Z,7.25
2018-12-11T05:49:44.846Z,7.28
2018-12-11T05:50:44.836Z,7.18
2018-12-11T05:51:44.827Z,7.25
2018-12-11T05:52:44.819Z,7.21
2018-12-11T05:53:44.811Z,7.17
2018-12-11T05:54:44.807Z,7.20
2018-12-11T05:55:44.794Z,7.15
2018-12-11T05:56:44.783Z,7.15
2018-12-11T05:57:44.777Z,7.24
2018-12-11T05:58:44.769Z,7.14
2018-12-11T05:59:44.762Z,7.21
2018-12-11T06:00:44.750Z,7.21
2018-12-11T06:01:44.740Z,7.28
2018-12-11T06:02:44.736Z,7.13
2018-12-11T06:03:44.722Z,7.21
2018-12-11T06:04:44.716Z,7.15
2018-12-11T06:05:44.706Z,7.21
2018-12-11T06:06:44.697Z,7.18
2018-12-11T06:07:44.690Z,7.21
2018-12-11T06:08:44.683Z,7.18
2018-12-11T06:09:44.683Z,7.21
2018-12-11T06:10:44.664Z,7.23
2018-12-11T06:11:44.712Z,7.20
2018-12-11T06:12:44.647Z,7.17
2018-12-11T06:13:44.637Z,7.25
2018-12-11T06:14:44.630Z,7.35
2018-12-11T06:15:44.622Z,7.33
2018-12-11T06:16:44.609Z,7.39
2018-12-11T06:17:44.602Z,7.24
2018-12-11T06:18:44.594Z,7.31
2018-12-11T06:19:44.586Z,7.36
2018-12-11T06:20:44.578Z,7.29
2018-12-11T06:21:44.568Z,7.32
2018-12-11T06:22:44.561Z,7.38
2018-12-11T06:23:44.550Z,7.35
2018-12-11T06:24:44.658Z,7.25
2018-12-11T06:25:44.534Z,7.35
2018-12-11T06:26:44.528Z,7.39
2018-12-11T06:27:44.519Z,7.39
2018-12-11T06:28:44.509Z,7.39
2018-12-11T06:29:44.501Z,7.39
2018-12-11T06:30:44.492Z,7.39
2018-12-11T06:31:44.480Z,7.43
2018-12-11T06:32:44.475Z,7.32
2018-12-11T06:33:44.463Z,7.36
2018-12-11T06:34:44.455Z,7.32
2018-12-11T06:35:44.446Z,7.35
2018-12-11T06:36:44.438Z,7.31
2018-12-11T06:37:44.432Z,7.36
2018-12-11T06:38:44.422Z,7.36
2018-12-11T06:39:44.412Z,7.39
2018-12-11T06:40:44.403Z,7.39
2018-12-11T06:41:44.396Z,7.35
2018-12-11T06:42:44.387Z,7.35
2018-12-11T06:43:44.382Z,7.33
2018-12-11T06:44:44.370Z,7.39
2018-12-11T06:45:44.362Z,7.40
2018-12-11T06:46:44.354Z,7.50
2018-12-11T06:47:44.344Z,7.53
2018-12-11T06:48:44.332Z,7.45
2018-12-11T06:49:44.328Z,7.53
2018-12-11T06:50:44.320Z,7.50
2018-12-11T06:51:44.309Z,7.50
2018-12-11T06:52:44.302Z,7.48
2018-12-11T06:53:44.293Z,7.47
2018-12-11T06:54:44.285Z,7.38
2018-12-11T06:55:44.275Z,7.42
2018-12-11T06:56:44.269Z,7.53
2018-12-11T06:57:44.261Z,7.39
2018-12-11T06:58:44.254Z,7.40
2018-12-11T06:59:44.242Z,7.36
2018-12-11T07:00:44.236Z,7.42
2018-12-11T07:01:44.226Z,7.48
2018-12-11T07:02:44.218Z,7.42
2018-12-11T07:03:44.210Z,7.45
2018-12-11T07:04:44.196Z,7.51
2018-12-11T07:05:44.213Z,7.45
2018-12-11T07:06:44.184Z,7.43
2018-12-11T07:07:44.171Z,7.45
2018-12-11T07:08:44.179Z,7.45
2018-12-11T07:09:44.171Z,7.36
2018-12-11T07:10:44.149Z,7.36
2018-12-11T07:11:44.149Z,7.50
2018-12-11T07:12:44.132Z,7.56
2018-12-11T07:13:44.123Z,7.43
2018-12-11T07:14:44.120Z,7.43
2018-12-11T07:15:44.106Z,7.48
2018-12-11T07:16:44.119Z,7.53
2018-12-11T07:17:44.092Z,7.50
2018-12-11T07:18:44.080Z,7.51
2018-12-11T07:19:44.068Z,7.48
2018-12-11T07:20:44.062Z,7.47
2018-12-11T07:21:44.056Z,7.53
2018-12-11T07:22:44.050Z,7.48
2018-12-11T07:23:44.038Z,7.51
2018-12-11T07:24:44.030Z,7.47
2018-12-11T07:25:44.035Z,7.45
2018-12-11T07:26:44.021Z,7.36
2018-12-11T07:27:44.008Z,7.40
2018-12-11T07:28:43.997Z,7.32
2018-12-11T07:29:43.986Z,7.39
2018-12-11T07:30:43.980Z,7.29
2018-12-11T07:31:43.970Z,7.31
2018-12-11T07:32:43.963Z,7.43
2018-12-11T07:33:43.956Z,7.35
2018-12-11T07:34:43.946Z,7.33
2018-12-11T07:35:43.935Z,7.38
2018-12-11T07:36:43.928Z,7.39
2018-12-11T07:37:43.921Z,7.32
2018-12-11T07:38:43.913Z,7.32
2018-12-11T07:39:43.902Z,7.43
2018-12-11T07:40:43.894Z,7.43
2018-12-11T07:41:43.884Z,7.43
2018-12-11T07:42:43.882Z,7.48
2018-12-11T07:43:43.867Z,7.42
2018-12-11T07:44:43.871Z,7.47
2018-12-11T07:45:43.848Z,7.50
2018-12-11T07:46:43.842Z,7.33
2018-12-11T07:47:43.831Z,7.45
2018-12-11T07:48:43.823Z,7.42
2018-12-11T07:49:43.815Z,7.50
2018-12-11T07:50:43.808Z,7.48
2018-12-11T07:51:43.800Z,7.42
2018-12-11T07:52:43.794Z,7.51
2018-12-11T07:53:43.782Z,7.40
2018-12-11T07:54:43.774Z,7.50
2018-12-11T07:55:43.767Z,7.54
2018-12-11T07:56:43.756Z,7.51
2018-12-11T07:57:43.748Z,7.51
2018-12-11T07:58:43.741Z,7.54
2018-12-11T07:59:43.731Z,7.53
2018-12-11T08:00:43.720Z,7.53
2018-12-11T08:01:43.713Z,7.48
2018-12-11T08:02:43.711Z,7.50
2018-12-11T08:03:43.698Z,7.50
2018-12-11T08:04:43.688Z,7.48
2018-12-11T08:05:43.680Z,7.45
2018-12-11T08:06:43.672Z,7.53
2018-12-11T08:07:43.665Z,7.53
2018-12-11T08:08:43.655Z,7.50
2018-12-11T08:09:43.647Z,7.56
2018-12-11T08:10:43.640Z,7.50
2018-12-11T08:11:43.630Z,7.54
2018-12-11T08:12:43.622Z,7.53
2018-12-11T08:13:43.615Z,7.54
2018-12-11T08:14:43.605Z,7.45
2018-12-11T08:15:43.592Z,7.54
2018-12-11T08:16:43.588Z,7.51
2018-12-11T08:17:43.584Z,7.56
2018-12-11T08:18:43.572Z,7.45
2018-12-11T08:19:43.562Z,7.45
2018-12-11T08:20:43.554Z,7.45
2018-12-11T08:21:43.546Z,7.45
2018-12-11T08:22:43.541Z,7.42
2018-12-11T08:23:43.529Z,7.51
2018-12-11T08:24:43.528Z,7.43
2018-12-11T08:25:43.511Z,7.50
2018-12-11T08:26:43.507Z,7.56
2018-12-11T08:27:43.505Z,7.51
2018-12-11T08:28:43.487Z,7.50
2018-12-11T08:29:43.505Z,7.48
2018-12-11T08:30:43.469Z,7.56
2018-12-11T08:31:43.470Z,7.54
2018-12-11T08:32:43.453Z,7.53
2018-12-11T08:33:43.441Z,7.60
2018-12-11T08:34:43.434Z,7.60
2018-12-11T08:35:43.422Z,7.66
2018-12-11T08:36:43.421Z,7.67
2018-12-11T08:37:43.415Z,7.67
2018-12-11T08:38:43.403Z,7.61
2018-12-11T08:39:43.394Z,7.70
2018-12-11T08:40:43.386Z,7.67
2018-12-11T08:41:43.379Z,7.63
2018-12-11T08:42:43.371Z,7.73
2018-12-11T08:43:43.359Z,7.70
2018-12-11T08:44:43.347Z,7.76
2018-12-11T08:45:43.346Z,7.72
2018-12-11T08:46:43.335Z,7.66
2018-12-11T08:47:43.330Z,7.69
2018-12-11T08:48:43.318Z,7.73
2018-12-11T08:49:43.310Z,7.69
2018-12-11T08:50:43.304Z,7.77
2018-12-11T08:51:43.299Z,7.80
2018-12-11T08:52:43.285Z,7.76
2018-12-11T08:53:43.278Z,7.77
2018-12-11T08:54:43.269Z,7.94
2018-12-11T08:55:43.263Z,7.94
2018-12-11T08:56:43.256Z,7.88
2018-12-11T08:57:43.243Z,7.98
2018-12-11T08:58:43.236Z,7.94
2018-12-11T08:59:43.227Z,7.98
2018-12-11T09:00:43.217Z,7.91
2018-12-11T09:01:43.218Z,7.85
2018-12-11T09:02:43.203Z,7.82
2018-12-11T09:03:43.195Z,7.97
2018-12-11T09:04:43.185Z,7.98
2018-12-11T09:05:43.195Z,7.94
2018-12-11T09:06:43.172Z,8.03
2018-12-11T09:07:43.162Z,7.95
2018-12-11T09:08:43.151Z,7.95
2018-12-11T09:09:43.163Z,7.95
2018-12-11T09:10:43.140Z,7.95
2018-12-11T09:11:43.142Z,7.93
2018-12-11T09:12:43.126Z,7.95
2018-12-11T09:13:43.113Z,8.06
2018-12-11T09:14:43.105Z,8.01
2018-12-11T09:15:43.094Z,8.08
2018-12-11T09:16:43.204Z,8.08
2018-12-11T09:17:43.081Z,8.03
2018-12-11T09:18:43.079Z,7.98
2018-12-11T09:19:43.073Z,7.98
2018-12-11T09:20:43.058Z,7.97
2018-12-11T09:21:43.049Z,8.08
2018-12-11T09:22:43.046Z,8.05
2018-12-11T09:23:43.031Z,8.06
2018-12-11T09:24:43.025Z,8.12
2018-12-11T09:25:43.019Z,8.15
2018-12-11T09:26:43.005Z,8.23
2018-12-11T09:27:42.999Z,8.24
2018-12-11T09:28:42.991Z,8.28
2018-12-11T09:29:43.038Z,8.33
2018-12-11T09:30:42.979Z,8.26
2018-12-11T09:31:42.970Z,8.24
2018-12-11T09:32:42.965Z,8.26
2018-12-11T09:33:42.959Z,8.15
2018-12-11T09:34:42.946Z,8.08
2018-12-11T09:35:42.936Z,8.10
2018-12-11T09:36:42.934Z,8.06
2018-12-11T09:37:42.923Z,8.03
2018-12-11T09:38:42.919Z,8.05
2018-12-11T09:39:42.907Z,8.00
2018-12-11T09:40:42.897Z,8.08
2018-12-11T09:41:42.892Z,8.05
2018-12-11T09:42:42.881Z,8.19
2018-12-11T09:43:42.874Z,8.27
2018-12-11T09:44:42.873Z,8.26
2018-12-11T09:45:42.856Z,8.33
2018-12-11T09:46:42.850Z,8.28
2018-12-11T09:47:42.842Z,8.33
2018-12-11T09:48:42.833Z,8.37
2018-12-11T09:49:42.823Z,8.33
2018-12-11T09:50:42.822Z,8.34
2018-12-11T09:51:42.856Z,8.34
2018-12-11T09:52:42.805Z,8.36
2018-12-11T09:53:42.796Z,8.37
2018-12-11T09:54:42.788Z,8.36
2018-12-11T09:55:42.779Z,8.34
2018-12-11T09:56:42.769Z,8.30
2018-12-11T09:57:42.766Z,8.27
2018-12-11T09:58:42.759Z,8.19
2018-12-11T09:59:42.751Z,8.19
2018-12-11T10:00:42.792Z,8.28
2018-12-11T10:01:42.732Z,8.23
2018-12-11T10:02:42.723Z,8.24
2018-12-11T10:03:43.056Z,8.10
2018-12-11T10:04:42.711Z,8.08
2018-12-11T10:05:42.759Z,8.15
2018-12-11T10:06:42.690Z,8.16
2018-12-11T10:07:42.684Z,8.20
2018-12-11T10:08:42.674Z,8.26
2018-12-11T10:09:42.677Z,8.19
2018-12-11T10:10:42.666Z,8.34
2018-12-11T10:11:42.655Z,8.36
2018-12-11T10:12:42.663Z,8.33
2018-12-11T10:13:42.640Z,8.36
2018-12-11T10:14:42.634Z,8.36
2018-12-11T10:15:42.620Z,8.37
2018-12-11T10:16:42.622Z,8.41
2018-12-11T10:17:42.606Z,8.46
2018-12-11T10:18:42.599Z,8.49
2018-12-11T10:19:42.588Z,8.60
2018-12-11T10:20:42.595Z,8.53
2018-12-11T10:21:42.581Z,8.60
2018-12-11T10:22:42.567Z,8.53
2018-12-11T10:23:42.561Z,8.58
2018-12-11T10:24:42.559Z,8.56
2018-12-11T10:25:42.546Z,8.69
2018-12-11T10:26:42.539Z,8.56
2018-12-11T10:27:42.535Z,8.55
2018-12-11T10:28:42.524Z,8.63
2018-12-11T10:29:42.516Z,8.60
2018-12-11T10:30:42.517Z,8.60
2018-12-11T10:31:42.502Z,8.56
2018-12-11T10:32:42.494Z,8.60
2018-12-11T10:33:42.484Z,8.55
2018-12-11T10:34:42.492Z,8.56
2018-12-11T10:35:42.468Z,8.60
2018-12-11T10:36:42.463Z,8.58
2018-12-11T10:37:42.453Z,8.56
2018-12-11T10:38:42.446Z,8.46
2018-12-11T10:39:42.441Z,8.52
2018-12-11T10:40:42.431Z,8.63
2018-12-11T10:41:42.422Z,8.56
2018-12-11T10:42:42.416Z,8.63
2018-12-11T10:43:42.406Z,8.61
2018-12-11T10:44:42.401Z,8.56
2018-12-11T10:45:42.395Z,8.52
2018-12-11T10:46:42.384Z,8.51
2018-12-11T10:47:42.380Z,8.51
2018-12-11T10:48:42.370Z,8.51
2018-12-11T10:49:42.362Z,8.52
2018-12-11T10:50:42.352Z,8.52
2018-12-11T10:51:42.346Z,8.49
2018-12-11T10:52:42.380Z,8.42
2018-12-11T10:53:42.336Z,8.48
2018-12-11T10:54:42.322Z,8.42
2018-12-11T10:55:42.315Z,8.51
2018-12-11T10:56:42.305Z,8.37
2018-12-11T10:57:42.301Z,8.34
2018-12-11T10:58:42.298Z,8.34
2018-12-11T10:59:42.284Z,8.36
2018-12-11T11:00:42.278Z,8.45
2018-12-11T11:01:42.269Z,8.41
2018-12-11T11:02:42.264Z,8.51
2018-12-11T11:03:42.269Z,8.49
2018-12-11T11:04:42.247Z,8.53
2018-12-11T11:05:42.240Z,8.52
2018-12-11T11:06:42.231Z,8.56
2018-12-11T11:07:42.228Z,8.48
2018-12-11T11:08:42.218Z,8.63
2018-12-11T11:09:42.287Z,8.52
2018-12-11T11:10:42.197Z,8.48
2018-12-11T11:11:42.193Z,8.51
2018-12-11T11:12:42.200Z,8.51
2018-12-11T11:13:42.219Z,8.53
2018-12-11T11:14:42.194Z,8.60
2018-12-11T11:15:42.206Z,8.60
2018-12-11T11:16:42.157Z,8.58
2018-12-11T11:17:42.156Z,8.58
2018-12-11T11:18:42.140Z,8.56
2018-12-11T11:19:42.133Z,8.58
2018-12-11T11:20:42.126Z,8.55
2018-12-11T11:21:42.119Z,8.61
2018-12-11T11:22:43.377Z,8.53
2018-12-11T11:23:43.376Z,8.58
2018-12-11T11:24:43.813Z,8.56
2018-12-11T11:25:42.371Z,8.61
2018-12-11T11:26:43.358Z,8.55
2018-12-11T11:27:43.353Z,8.48
2018-12-11T11:28:43.357Z,8.53
2018-12-11T11:29:43.875Z,8.60
2018-12-11T11:30:42.844Z,8.60
2018-12-11T11:31:42.041Z,8.60
2018-12-11T11:32:42.069Z,8.52
2018-12-11T11:33:42.025Z,8.53
2018-12-11T11:34:42.018Z,8.49
2018-12-11T11:35:42.010Z,8.51
2018-12-11T11:36:42.137Z,8.56
2018-12-11T11:37:41.999Z,8.56
2018-12-11T11:38:41.991Z,8.63
2018-12-11T11:39:41.980Z,8.53
2018-12-11T11:40:41.970Z,8.55
2018-12-11T11:41:41.967Z,8.51
2018-12-11T11:42:41.956Z,8.55
2018-12-11T11:43:41.950Z,8.52
2018-12-11T11:44:41.944Z,8.52
2018-12-11T11:45:41.933Z,8.34
2018-12-11T11:46:41.938Z,8.37
2018-12-11T11:47:41.924Z,8.51
2018-12-11T11:48:41.913Z,8.53
2018-12-11T11:49:41.905Z,8.46
2018-12-11T11:50:41.898Z,8.52
2018-12-11T11:51:41.893Z,8.58
2018-12-11T11:52:41.884Z,8.56
2018-12-11T11:53:41.877Z,8.53
2018-12-11T11:54:41.866Z,8.58
2018-12-11T11:55:41.861Z,8.46
2018-12-11T11:56:41.862Z,8.45
2018-12-11T11:57:41.844Z,8.52
2018-12-11T11:58:41.836Z,8.48
2018-12-11T11:59:41.827Z,8.55
2018-12-11T12:00:41.824Z,8.60
2018-12-11T12:01:41.816Z,8.60
2018-12-11T12:02:41.804Z,8.58
2018-12-11T12:03:41.799Z,8.58
2018-12-11T12:04:41.792Z,8.66
2018-12-11T12:05:41.788Z,8.58
2018-12-11T12:06:41.781Z,8.56
2018-12-11T12:07:41.767Z,8.58
2018-12-11T12:08:41.773Z,8.56
2018-12-11T12:09:41.759Z,8.58
2018-12-11T12:10:41.746Z,8.56
2018-12-11T12:11:41.771Z,8.53
2018-12-11T12:12:41.731Z,8.49
2018-12-11T12:13:41.729Z,8.61
2018-12-11T12:14:41.719Z,8.60
2018-12-11T12:15:41.707Z,8.66
2018-12-11T12:16:41.702Z,8.53
2018-12-11T12:17:41.694Z,8.60
2018-12-11T12:18:41.688Z,8.58
2018-12-11T12:19:41.679Z,8.56
2018-12-11T12:20:41.670Z,8.58
2018-12-11T12:21:41.668Z,8.60
2018-12-11T12:22:41.656Z,8.56
2018-12-11T12:23:41.649Z,8.58
2018-12-11T12:24:41.639Z,8.58
2018-12-11T12:25:41.633Z,8.55
2018-12-11T12:26:41.627Z,8.61
2018-12-11T12:27:41.618Z,8.52
2018-12-11T12:28:41.610Z,8.61
2018-12-11T12:29:41.602Z,8.71
2018-12-11T12:30:41.593Z,8.67
2018-12-11T12:31:41.587Z,8.66
2018-12-11T12:32:41.580Z,8.58
2018-12-11T12:33:41.575Z,8.63
2018-12-11T12:34:41.563Z,8.70
2018-12-11T12:35:41.557Z,8.71
2018-12-11T12:36:41.555Z,8.78
2018-12-11T12:37:41.538Z,8.78
2018-12-11T12:38:41.533Z,8.81
2018-12-11T12:39:41.526Z,8.81
2018-12-11T12:40:42.216Z,8.73
2018-12-11T12:41:41.516Z,8.76
2018-12-11T12:42:41.589Z,8.79
2018-12-11T12:43:41.538Z,8.79
2018-12-11T12:44:41.487Z,8.73
2018-12-11T12:45:41.489Z,8.73
2018-12-11T12:46:41.519Z,8.76
2018-12-11T12:47:41.469Z,8.71
2018-12-11T12:48:41.467Z,8.84
2018-12-11T12:49:41.453Z,8.87
2018-12-11T12:50:41.446Z,8.82
2018-12-11T12:51:41.442Z,8.84
2018-12-11T12:52:41.511Z,8.84
2018-12-11T12:53:42.223Z,8.89
2018-12-11T12:54:41.417Z,8.84
2018-12-11T12:55:41.549Z,8.82
2018-12-11T12:56:41.404Z,8.84
2018-12-11T12:57:41.392Z,8.76
2018-12-11T12:58:41.385Z,8.73
2018-12-11T12:59:41.378Z,8.76
2018-12-11T13:00:41.374Z,8.71
2018-12-11T13:01:41.365Z,8.78
2018-12-11T13:02:41.353Z,8.78
2018-12-11T13:03:41.373Z,8.74
2018-12-11T13:04:41.341Z,8.70
2018-12-11T13:05:41.328Z,8.66
2018-12-11T13:06:41.331Z,8.69
2018-12-11T13:07:41.318Z,8.60
2018-12-11T13:08:41.311Z,8.56
2018-12-11T13:09:41.310Z,8.61
2018-12-11T13:10:41.296Z,8.58
2018-12-11T13:11:41.291Z,8.56
2018-12-11T13:12:41.282Z,8.51
2018-12-11T13:13:41.273Z,8.48
2018-12-11T13:14:41.269Z,8.61
2018-12-11T13:15:41.256Z,8.60
2018-12-11T13:16:41.250Z,8.53
2018-12-11T13:17:41.245Z,8.56
2018-12-11T13:18:41.240Z,8.60